首页
METAR-TAF:

METAR-TAF

机场 :

阿维亚诺空军基地

Aviano, 意大利

纬度: 46-02N, 经度: 012-36E, 海拔: 128米

当前天气观测

该预报发布于50分钟前的17:55 UTC
风速8节,风向东北
温度 6°C
湿度 93%
气压 1017 hPa
能见度10公里或以上
少量云层高于2000英尺
多云层高于5000英尺
小雨

METAR: LIPA 301755Z 05008KT 9999 -RA FEW020 BKN050 06/05 Q1017 RMK OVC VIS MIN 9999 WIND THR05 /////KT WIND THR23 /////KT A3006 BLU

时间: 20:45 (18:45 UTC)

预报

该预报发布于1小时和45分钟前的17:00 UTC
预报有效从30日的 18点(UTC)到 31日的 03点(UTC)
风速10节,风向东转东北
能见度10公里或以上
散云层高于3000英尺
多云层高于4000英尺
短暂存在
从 30日的 18点(UTC)到 30日的 24点(UTC)
能見度: 4000
雨, 轻雾

TAF: LIPA 301700Z 3018/3103 07010KT 9999 SCT030 BKN040 TEMPO 3018/3024 4000 RA BR

超过4000个机场的气象观测和天气预报(METAR&TAF报告)。

可查询的气象台以黄色和红色小点在地图上表示。

将鼠标移到小点上方,可查看气象台名称。

然后点击查看天气观测和预报。

如需切换地图:点击带黑十字的绿色按钮放大地图;点击带横线的绿色按钮缩小地图;或者点击绿色箭头查看邻近地区的地图。


METAR-TAF: